Flight Track Log - Related Links

Times and Time Zones

All times are in EDT time to prevent confusion due to time zone crossing. See the ASQ4103 flight status page for this flight to view local times or setup timezone preferences in your user account.

Time Position Orientation Groundspeed Altitude Reporting Facility
EDT Latitude Longitude Course Direction KTS MPH feet Rate Location/Type
Mon 03:32:22 PM 32.0925 -110.9125 134° Southeast 179 206 3,500  Level Albuquerque Center
Mon 03:33:23 PM 32.0569 -110.8619 130° Southeast 214 246 5,600 2,231 Climbing Albuquerque Center
Mon 03:34:23 PM 32.0489 -110.7886 97° East 226 260 8,000 2,339 Climbing Albuquerque Center
Mon 03:35:00 PM 32.0772 -110.4268 77° East  Level Estimated
Mon 03:35:21 PM 32.0494 -110.7142 89° East 227 261 10,200  Level Albuquerque Center
Mon 03:35:24 PM 32.0475 -110.7058 105° East 235 270 10,400 1,238 Climbing Albuquerque Center
Mon 03:36:00 PM 32.0672 -110.2983 77° East  Level Estimated
Mon 03:36:24 PM 32.0467 -110.6356 91° East 246 283 11,500  Level Albuquerque Center
Mon 03:37:00 PM 32.0570 -110.1699 75° East  Level Estimated
Mon 03:37:25 PM 32.0422 -110.5358 93° East 290 334 12,700  Level Albuquerque Center
Mon 03:38:28 PM 32.0392 -110.4258 92° East 324 373 13,500 1,008 Climbing Albuquerque Center
Mon 03:39:30 PM 32.0331 -110.2764 93° East 371 427 14,800 1,122 Climbing Albuquerque Center
Mon 03:40:31 PM 32.0281 -110.1511 93° East 381 438 15,800 984 Climbing Albuquerque Center
Mon 03:41:32 PM 32.0228 -110.0214 93° East 393 452 16,800 968 Climbing Albuquerque Center
Mon 03:42:35 PM 32.0142 -109.8864 94° East 409 471 17,800 1,016 Climbing Albuquerque Center
Mon 03:43:36 PM 32.0094 -109.7542 92° East 407 468 18,900 1,033 Climbing Albuquerque Center
Mon 03:44:37 PM 32.0044 -109.6206 92° East 409 471 19,900 1,104 Climbing Albuquerque Center
Mon 03:45:41 PM 31.9975 -109.4592 93° East 412 474 21,200 1,104 Climbing Albuquerque Center
Mon 03:46:42 PM 31.9911 -109.3244 93° East 415 478 22,200 984 Climbing Albuquerque Center
Mon 03:47:43 PM 31.9853 -109.1911 93° East 413 475 23,200 1,008 Climbing Albuquerque Center
Mon 03:48:47 PM 31.9792 -109.0561 93° East 413 475 24,300 1,016 Climbing Albuquerque Center
Mon 03:49:47 PM 31.9711 -108.9192 94° East 416 479 25,300 992 Climbing Albuquerque Center
Mon 03:50:48 PM 31.9647 -108.7817 93° East 419 482 26,300 1,122 Climbing Albuquerque Center
Mon 03:51:50 PM 31.9564 -108.6161 93° East 422 486 27,600 1,095 Climbing Albuquerque Center
Mon 03:52:54 PM 31.9497 -108.4775 93° East 424 488 28,600 968 Climbing Albuquerque Center
Mon 03:53:54 PM 31.9419 -108.3378 94° East 425 489 29,600 1,041 Climbing Albuquerque Center
Mon 03:54:55 PM 31.9344 -108.2003 94° East 424 488 30,700 1,008 Climbing Albuquerque Center
Mon 03:55:59 PM 31.9267 -108.0622 94° East 424 488 31,700 960 Climbing Albuquerque Center
Mon 03:57:00 PM 31.9192 -107.9256 94° East 423 487 32,700 1,131 Climbing Albuquerque Center
Mon 03:58:01 PM 31.9097 -107.7600 94° East 423 487 34,000 1,056 Climbing Albuquerque Center
Mon 03:59:05 PM 31.9011 -107.6219 94° East 425 489 34,900 484 Climbing Albuquerque Center
Mon 04:00:05 PM 31.8933 -107.4836 94° East 426 490 35,000 50 Climbing Albuquerque Center
Mon 04:01:06 PM 31.8861 -107.3372 93° East 444 511 35,000  Level Albuquerque Center
Mon 04:02:11 PM 31.8758 -107.1836 94° East 467 537 35,000  Level Albuquerque Center
Mon 04:03:11 PM 31.8661 -107.0247 94° East 487 560 35,000  Level Albuquerque Center
Mon 04:04:12 PM 31.8533 -106.8303 94° East 500 575 35,000  Level Albuquerque Center
Mon 04:05:16 PM 31.8425 -106.6686 94° East 500 575 35,000  Level Albuquerque Center
Mon 04:06:17 PM 31.8308 -106.4978 95° East 501 577 35,000  Level Albuquerque Center
Mon 04:07:19 PM 31.8208 -106.3344 94° East 501 577 35,000  Level Albuquerque Center
Mon 04:08:21 PM 31.7894 -106.1744 103° East 530 610 35,000  Level Albuquerque Center
Mon 04:09:21 PM 31.7503 -106.0186 106° East 498 573 35,000  Level Albuquerque Center
Mon 04:10:25 PM 31.7108 -105.8619 106° East 500 575 35,000  Level Albuquerque Center
Mon 04:11:27 PM 31.6714 -105.7047 106° East 502 578 35,000  Level Albuquerque Center
Mon 04:12:27 PM 31.6239 -105.5167 106° East 501 577 35,000  Level Albuquerque Center
Mon 04:13:31 PM 31.5847 -105.3586 106° East 502 578 35,000  Level Albuquerque Center
Mon 04:14:32 PM 31.5439 -105.2033 107° East 498 573 35,000  Level Albuquerque Center
Mon 04:15:33 PM 31.5044 -105.0472 106° East 498 573 35,000  Level Albuquerque Center
Mon 04:16:33 PM 31.4647 -104.8881 106° East 499 574 35,000  Level Albuquerque Center
Mon 04:17:38 PM 31.4239 -104.7319 107° East 502 578 35,000  Level Albuquerque Center
Mon 04:18:38 PM 31.3833 -104.5761 107° East 502 578 35,000  Level Albuquerque Center
Mon 04:19:39 PM 31.3431 -104.4239 107° East 497 572 35,000  Level Albuquerque Center
Mon 04:20:41 PM 31.2964 -104.2436 107° East 489 563 35,000  Level Albuquerque Center
Mon 04:21:45 PM 31.2575 -104.0939 107° East 483 556 35,000  Level Albuquerque Center
Mon 04:22:45 PM 31.2167 -103.9397 107° East 491 565 35,000  Level Albuquerque Center
Mon 04:23:46 PM 31.1728 -103.7853 108° East 498 573 35,000  Level Albuquerque Center
Mon 04:24:50 PM 31.1322 -103.6422 108° East 482 555 35,000  Level Albuquerque Center
Mon 04:25:51 PM 31.0906 -103.4894 108° East 489 563 35,000 -49 Level Albuquerque Center
Mon 04:26:52 PM 31.0400 -103.3039 108° East 498 573 34,900  Descending Albuquerque Center
Mon 04:27:53 PM 30.9992 -103.1511 107° East 498 573 35,000 48 Climbing Albuquerque Center
Mon 04:28:57 PM 30.9581 -103.0006 108° East 492 566 35,000  Level Albuquerque Center
Mon 04:29:57 PM 30.9175 -102.8478 107° East 494 568 35,000  Level Albuquerque Center
Mon 04:30:59 PM 30.8775 -102.6950 107° East 496 571 35,000  Level Albuquerque Center
Mon 04:32:02 PM 30.8306 -102.5128 107° East 496 571 35,000  Level Albuquerque Center
Mon 04:33:04 PM 30.7903 -102.3606 107° East 496 571 35,000  Level Albuquerque Center
Mon 04:34:04 PM 30.7508 -102.2083 107° East 497 572 35,000  Level Albuquerque Center
Mon 04:35:08 PM 30.7103 -102.0558 107° East 497 572 35,000  Level Albuquerque Center
Mon 04:36:08 PM 30.6697 -101.9019 107° East 500 575 35,000  Level Albuquerque Center
Mon 04:37:36 PM 30.6047 -101.6558 107° East 500 575 35,000  Level Houston Center
Mon 04:38:38 PM 30.5667 -101.5147 107° East 501 577 35,000  Level Houston Center
Mon 04:39:40 PM 30.5247 -101.3608 108° East 501 577 35,000  Level Houston Center
Mon 04:40:42 PM 30.4828 -101.2067 107° East 502 578 35,000  Level Houston Center
Mon 04:41:44 PM 30.4342 -101.0211 107° East 503 579 35,000  Level Houston Center
Mon 04:42:46 PM 30.3897 -100.8692 109° East 499 574 35,000  Level Houston Center
Mon 04:43:49 PM 30.3489 -100.7161 107° East 498 573 35,000  Level Houston Center
Mon 04:44:51 PM 30.3067 -100.5642 108° East 495 570 35,000  Level Houston Center
Mon 04:45:53 PM 30.2650 -100.4114 107° East 495 570 35,000  Level Houston Center
Mon 04:46:55 PM 30.2222 -100.2572 108° East 495 570 35,000  Level Houston Center
Mon 04:47:57 PM 30.1792 -100.1006 108° East 498 573 35,000  Level Houston Center
Mon 04:48:59 PM 30.1342 -99.9494 109° East 494 568 35,000  Level Houston Center
Mon 04:50:01 PM 30.0828 -99.7686 108° East 493 567 35,000  Level Houston Center
Mon 04:51:03 PM 30.0394 -99.6189 108° East 492 566 35,000  Level Houston Center
Mon 04:52:05 PM 29.9964 -99.4694 108° East 491 565 35,000  Level Houston Center
Mon 04:53:08 PM 29.9533 -99.3203 108° East 490 564 35,000  Level Houston Center
Mon 04:54:10 PM 29.9089 -99.1725 109° East 489 563 35,000  Level Houston Center
Mon 04:55:12 PM 29.8436 -99.0008 114° Southeast 486 559 35,000  Level Houston Center
Mon 04:56:14 PM 29.7908 -98.8581 113° Southeast 484 557 35,000  Level Houston Center
Mon 04:57:16 PM 29.7344 -98.7050 113° Southeast 483 556 35,000  Level Houston Center
Mon 04:58:18 PM 29.6819 -98.5631 113° Southeast 482 555 35,000  Level Houston Center
Mon 04:59:20 PM 29.6472 -98.4083 104° East 507 583 35,000  Level Houston Center
Mon 05:00:22 PM 29.6481 -98.2381 90° East 496 571 35,000  Level Houston Center
Mon 05:01:24 PM 29.6497 -98.0825 89° East 489 563 35,000  Level Houston Center
Mon 05:02:26 PM 29.6439 -97.9153 92° East 487 560 35,000  Level Houston Center
Mon 05:03:29 PM 29.6358 -97.7708 94° East 486 559 35,000 -480 Level Houston Center
Mon 05:04:31 PM 29.6283 -97.6158 93° East 487 560 34,000 -1,742 Descending Houston Center
Mon 05:05:33 PM 29.6197 -97.4589 94° East 490 564 31,400 -2,419 Descending Houston Center
Mon 05:06:35 PM 29.6111 -97.2989 94° East 499 574 29,000 -2,419 Descending Houston Center
Mon 05:07:37 PM 29.6022 -97.1364 94° East 506 582 26,400 -2,903 Descending Houston Center
Mon 05:08:39 PM 29.5922 -96.9467 93° East 493 567 23,000 -3,048 Descending Houston Center
Mon 05:09:41 PM 29.5833 -96.7967 94° East 469 540 20,100 -2,903 Descending Houston Center
Mon 05:10:43 PM 29.5753 -96.6528 94° East 453 521 17,000 -2,661 Descending Houston Center
Mon 05:11:45 PM 29.5675 -96.5183 94° East 432 497 14,600 -2,386 Descending Houston Center
Mon 05:12:11 PM 29.5636 -96.4528 94° East 407 468 13,500 -1,935 Descending Houston Center
Mon 05:12:47 PM 29.5589 -96.3922 95° East 406 467 12,600 -1,821 Descending Houston Center
Mon 05:13:07 PM 29.5536 -96.3361 96° East 393 452 11,800 -1,645 Descending Houston Center
Mon 05:13:49 PM 29.5508 -96.2708 93° East 385 443 10,900 -1,475 Descending Houston Center
Mon 05:14:08 PM 29.5481 -96.2192 94° East 366 421 10,300 -952 Descending Houston Center
Mon 05:14:52 PM 29.5511 -96.1614 87° East 343 395 9,900 -327 Descending Houston Center
Mon 05:15:03 PM 29.5669 -96.1233 64° Northeast 335 386 10,000  Climbing Houston Center
Mon 05:15:54 PM 29.6189 -96.0575 48° Northeast 348 400 9,900  Descending Houston Center
Mon 05:16:11 PM 29.6439 -96.0428 27° Northeast 348 400 10,000 -290 Climbing Houston Center
Mon 05:16:56 PM 29.7017 -96.0122 25° Northeast 339 390 9,600 -787 Descending Houston Center
Mon 05:17:12 PM 29.7242 -96.0000 25° Northeast 296 341 9,200 -968 Descending Houston Center
Mon 05:17:58 PM 29.7739 -95.9753 23° Northeast 303 349 8,600 -873 Descending Houston Center
Mon 05:18:07 PM 29.7906 -95.9658 26° Northeast 274 315 8,400 -774 Descending Houston Center
Mon 05:19:00 PM 29.8300 -95.9253 42° Northeast 265 305 7,800 -774 Descending Houston Center
Mon 05:19:09 PM 29.8425 -95.9119 43° Northeast 249 287 7,600 -871 Descending Houston Center
Mon 05:20:02 PM 29.8694 -95.8608 59° Northeast 253 291 6,900 -885 Descending Houston Center
Mon 05:20:10 PM 29.8767 -95.8453 62° Northeast 237 273 6,700 -968 Descending Houston Center
Mon 05:21:04 PM 29.9008 -95.7956 61° Northeast 239 275 5,900 -1,065 Descending Houston Center
Mon 05:21:12 PM 29.9103 -95.7764 60° Northeast 232 267 5,600 -1,258 Descending Houston Center
Mon 05:22:06 PM 29.9356 -95.7156 64° Northeast 235 270 4,600 -1,082 Descending Houston Center
Mon 05:22:13 PM 29.9378 -95.7081 71° East 237 273 4,500 -774 Descending Houston Center
Mon 05:23:08 PM 29.9592 -95.6492 67° East 228 262 3,800 -787 Descending Houston Center
Mon 05:23:14 PM 29.9614 -95.6425 69° East 221 254 3,700 -677 Descending Houston Center
Mon 05:24:10 PM 29.9822 -95.5836 68° East 222 255 3,100 -627 Descending Houston Center
Mon 05:24:21 PM 29.9861 -95.5672 75° East 218 251 3,000 -381 Descending Houston Center
Mon 05:25:13 PM 29.9953 -95.5194 77° East 214 246 2,700 -429 Descending Houston Center
Mon 05:25:17 PM 29.9911 -95.5064 110° East 203 234 2,600 -871 Descending Houston Center
Mon 05:26:15 PM 29.9936 -95.4581 87° East 201 231 1,800 -984 Descending Houston Center
Mon 05:26:18 PM 29.9922 -95.4483 99° East 175 201 1,600 -774 Descending Houston Center
Mon 05:27:17 PM 29.9939 -95.4075 87° East 180 207 1,000 -689 Descending Houston Center
Mon 05:27:19 PM 29.9922 -95.4025 111° Southeast 136 157 900 -677 Descending Houston Center
Mon 05:28:19 PM 29.9936 -95.3669 87° East 150 173 300 -600 Descending Houston Center

Login

Don't have an account? Register now (free) for customized features, flight alerts, and more!